Time;durP1;ratioP1;P1;durP2;ratioP2;P2;SDS_P1;SDS_P2;PMS_P1;PMS_P2;Temp;Humidity;BMP_temperature;BMP_pressure;BME280_temperature;BME280_humidity;BME280_pressure;Samples;Min_cycle;Max_cycle;Signal;HPM_P1;HPM_P2
2021/05/17 00:01:45;;;;;;;21.67;16.67;;;;;;;15.81;80.95;99487.78;5044716;28;20408;-80
2021/05/17 00:07:36;;;;;;;24.88;17.58;;;;;;;15.79;81.04;99468.22;5037226;28;20072;-84
2021/05/17 00:10:22;;;;;;;23.08;17.48;;;;;;;15.79;80.73;99465.47;5035056;28;20041;-84
2021/05/17 00:13:07;;;;;;;25.30;16.85;;;;;;;15.79;80.74;99460.00;5036621;28;20071;-84
2021/05/17 00:15:52;;;;;;;19.15;16.30;;;;;;;15.77;80.58;99456.81;5037773;28;20041;-83
2021/05/17 00:18:38;;;;;;;21.35;15.98;;;;;;;15.78;80.19;99461.94;5036237;28;20560;-82
2021/05/17 00:21:23;;;;;;;22.23;16.02;;;;;;;15.73;80.58;99453.28;5040175;28;20041;-85
2021/05/17 00:24:09;;;;;;;;;;;;;;;15.88;80.29;99460.44;5034720;28;20057;-82
2021/05/17 00:27:12;;;;;;;18.35;14.77;;;;;;;15.99;79.50;99463.25;5035147;28;19917;-81
2021/05/17 00:30:16;;;;;;;23.63;16.50;;;;;;;15.96;79.35;99459.31;5037831;28;20033;-84
2021/05/17 00:33:01;;;;;;;20.55;14.93;;;;;;;15.82;79.51;99445.50;5016651;28;20042;-85
2021/05/17 00:36:05;;;;;;;16.10;13.60;;;;;;;15.91;79.53;99454.19;5014220;28;20066;-84
2021/05/17 00:38:50;;;;;;;16.52;13.52;;;;;;;16.12;78.18;99454.31;5017697;28;20049;-82
2021/05/17 00:41:37;;;;;;;18.45;14.20;;;;;;;16.10;78.28;99448.41;5033013;28;20040;-83
2021/05/17 00:44:23;;;;;;;16.70;13.95;;;;;;;15.98;78.85;99447.97;5039342;28;20060;-84
2021/05/17 00:47:10;;;;;;;;;;;;;;;16.18;78.26;99482.19;5037074;28;20052;-84
2021/05/17 00:50:15;;;;;;;14.30;11.23;;;;;;;16.61;75.63;99496.94;5034133;28;19913;-82
2021/05/17 00:53:00;;;;;;;14.05;9.13;;;;;;;16.89;73.94;99505.28;5036091;28;20052;-82
2021/05/17 00:55:45;;;;;;;;;;;;;;;17.11;72.90;99500.66;5040726;28;20409;-84
2021/05/17 01:01:36;;;;;;;15.48;10.32;;;;;;;17.30;71.62;99486.56;5035747;28;20040;-83
2021/05/17 01:04:20;;;;;;;9.70;7.95;;;;;;;17.33;70.65;99476.75;5014679;28;20049;-81
2021/05/17 01:07:11;;;;;;;15.80;10.50;;;;;;;17.27;70.89;99470.84;5019367;28;20060;-83
2021/05/17 01:09:58;;;;;;;11.25;8.60;;;;;;;17.30;70.05;99472.03;5017290;28;20049;-83
2021/05/17 01:12:46;;;;;;;11.02;7.95;;;;;;;17.37;70.09;99472.06;5031534;28;20425;-80
2021/05/17 01:15:50;;;;;;;7.20;5.18;;;;;;;17.35;68.75;99453.22;5033293;28;20124;-81
2021/05/17 01:18:35;;;;;;;7.10;5.40;;;;;;;17.23;69.03;99450.03;5035952;28;20044;-81
2021/05/17 01:21:25;;;;;;;5.10;4.00;;;;;;;16.96;67.09;99452.38;5034226;28;20052;-82
2021/05/17 01:24:11;;;;;;;5.75;2.08;;;;;;;16.84;67.42;99467.22;5031355;28;20048;-81
2021/05/17 01:26:57;;;;;;;4.03;2.53;;;;;;;16.73;67.37;99460.13;5048642;28;20064;-81
2021/05/17 01:30:02;;;;;;;5.78;0.65;;;;;;;16.60;66.20;99440.47;5032749;28;20053;-80
2021/05/17 01:33:07;;;;;;;1.55;0.88;;;;;;;16.40;67.86;99450.97;5036022;28;20053;-82
2021/05/17 01:35:57;;;;;;;4.95;1.80;;;;;;;16.50;68.51;99446.69;5029385;28;20540;-82
2021/05/17 01:39:04;;;;;;;3.13;2.25;;;;;;;16.47;68.70;99441.94;5051524;28;20052;-80
2021/05/17 01:41:52;;;;;;;5.20;2.40;;;;;;;16.43;69.51;99432.91;5034803;28;20049;-81
2021/05/17 01:44:39;;;;;;;1.45;0.82;;;;;;;16.41;68.29;99433.31;5032799;28;20056;-80
2021/05/17 01:47:25;;;;;;;1.23;0.50;;;;;;;16.33;67.81;99431.72;5039182;28;20045;-82
2021/05/17 01:50:14;;;;;;;1.70;0.43;;;;;;;16.07;67.69;99420.97;5042582;28;20041;-80
2021/05/17 01:53:17;;;;;;;2.30;0.50;;;;;;;15.76;68.31;99416.88;5035280;28;20528;-81
2021/05/17 01:56:05;;;;;;;4.50;0.55;;;;;;;15.68;69.58;99424.28;5035258;28;20441;-81
2021/05/17 01:58:51;;;;;;;3.28;1.95;;;;;;;16.01;71.94;99414.28;5046084;28;20644;-81
2021/05/17 02:01:36;;;;;;;4.78;1.77;;;;;;;16.20;71.61;99425.75;5026624;28;20053;-80
2021/05/17 02:04:21;;;;;;;;;;;;;;;16.44;70.70;99421.56;5039570;28;20048;-82
2021/05/17 02:07:06;;;;;;;1.43;0.70;;;;;;;16.24;68.70;99412.88;5038507;28;19913;-82
2021/05/17 02:09:53;;;;;;;2.13;0.75;;;;;;;16.13;69.65;99414.75;5036007;28;20048;-84
2021/05/17 02:12:41;;;;;;;0.77;0.70;;;;;;;16.37;70.68;99409.75;5044113;28;20053;-83
2021/05/17 02:15:32;;;;;;;7.20;0.70;;;;;;;16.48;70.07;99411.38;5032815;28;20116;-81
2021/05/17 02:18:20;;;;;;;1.33;0.60;;;;;;;16.64;69.89;99411.09;5036350;28;20152;-84
2021/05/17 02:21:05;;;;;;;1.48;0.45;;;;;;;16.81;69.08;99412.31;5036186;28;20529;-82
2021/05/17 02:23:51;;;;;;;2.78;0.65;;;;;;;16.78;68.22;99394.63;5034504;28;20557;-84
2021/05/17 02:26:36;;;;;;;0.98;0.57;;;;;;;16.78;67.67;99402.09;5052640;28;20192;-82
2021/05/17 02:29:22;;;;;;;1.08;0.40;;;;;;;16.82;68.42;99403.66;5041910;28;20045;-81
2021/05/17 02:35:15;;;;;;;1.75;0.50;;;;;;;16.87;67.75;99408.78;5038952;28;20064;-81
2021/05/17 02:38:00;;;;;;;3.78;1.25;;;;;;;16.73;67.31;99397.78;5039397;28;20048;-81
2021/05/17 02:40:50;;;;;;;1.60;0.57;;;;;;;16.76;67.41;99398.97;5035563;28;20056;-83
2021/05/17 02:43:36;;;;;;;0.43;0.35;;;;;;;16.39;66.84;99390.97;5052360;28;20524;-82
2021/05/17 02:46:29;;;;;;;0.40;0.40;;;;;;;16.34;66.30;99372.94;5040055;28;20052;-84
2021/05/17 02:49:35;;;;;;;6.28;0.40;;;;;;;16.13;65.06;99365.41;5037801;28;20074;-83
2021/05/17 02:52:19;;;;;;;15.55;0.68;;;;;;;16.16;66.02;99369.31;5041803;28;20060;-83
2021/05/17 02:55:12;;;;;;;65.38;10.48;;;;;;;16.36;68.35;99380.75;5033438;28;20048;-82
2021/05/17 02:58:05;;;;;;;4.60;1.30;;;;;;;16.09;65.89;99353.63;5042794;28;20048;-82
2021/05/17 03:00:53;;;;;;;7.10;1.35;;;;;;;15.90;65.94;99359.38;5038613;28;20053;-81
2021/05/17 03:03:47;;;;;;;9.95;2.45;;;;;;;15.83;66.42;99371.13;5037851;28;20048;-81
2021/05/17 03:06:40;;;;;;;4.28;1.00;;;;;;;15.75;66.96;99374.19;5055416;28;20536;-82
2021/05/17 03:09:28;;;;;;;2.38;1.40;;;;;;;15.92;67.67;99383.69;5052250;28;20048;-81
2021/05/17 03:12:36;;;;;;;1.92;1.00;;;;;;;16.05;67.66;99410.38;5038149;28;20048;-82
2021/05/17 03:15:26;;;;;;;5.55;1.52;;;;;;;16.23;68.73;99429.69;5039801;28;20049;-82
2021/05/17 03:18:30;;;;;;;4.97;1.35;;;;;;;16.54;68.61;99444.72;5023357;28;20049;-80
2021/05/17 03:21:19;;;;;;;9.88;0.77;;;;;;;16.65;67.68;99437.38;5021943;28;20057;-83
2021/05/17 03:24:05;;;;;;;1.45;0.60;;;;;;;16.47;66.12;99450.19;5020469;28;20045;-82
2021/05/17 03:26:53;;;;;;;1.45;0.70;;;;;;;16.40;66.38;99469.38;5043335;28;20053;-81
2021/05/17 03:29:38;;;;;;;2.67;0.50;;;;;;;16.33;66.58;99458.34;5041427;28;20052;-81
2021/05/17 03:32:25;;;;;;;;;;;;;;;16.35;66.77;99456.81;5039409;28;20453;-81
2021/05/17 03:35:10;;;;;;;2.80;1.10;;;;;;;16.27;66.49;99463.41;5037578;28;19913;-81
2021/05/17 03:37:55;;;;;;;1.67;0.55;;;;;;;16.05;66.04;99464.47;5041514;28;20048;-82
2021/05/17 03:40:59;;;;;;;1.13;0.77;;;;;;;15.62;67.02;99469.63;5037392;28;20044;-82
2021/05/17 03:43:44;;;;;;;;;;;;;;;15.59;68.38;99483.31;5039535;28;20056;-81
2021/05/17 03:46:28;;;;;;;1.30;1.10;;;;;;;15.45;67.92;99480.41;5047397;28;19913;-81
2021/05/17 03:49:13;;;;;;;;;;;;;;;15.72;68.65;99488.13;5036447;28;20045;-82
2021/05/17 03:51:59;;;;;;;0.55;0.35;;;;;;;15.94;68.78;99475.38;5039801;28;20389;-80
2021/05/17 03:54:44;;;;;;;;;;;;;;;16.21;68.60;99476.69;5038374;28;20413;-82
2021/05/17 03:57:29;;;;;;;2.20;0.70;;;;;;;16.42;67.97;99473.28;5048832;28;19913;-80
2021/05/17 04:00:15;;;;;;;0.70;0.70;;;;;;;16.60;67.15;99485.19;5039809;28;20513;-81
2021/05/17 04:03:06;;;;;;;1.35;0.65;;;;;;;16.79;66.30;99497.81;5050589;28;20048;-80
2021/05/17 04:15:08;;;;;;;4.70;0.80;;;;;;;16.95;64.97;99528.47;5043810;28;20045;-81
2021/05/17 04:17:53;;;;;;;1.95;0.80;;;;;;;16.80;65.73;99548.81;5037113;28;20406;-80
2021/05/17 04:20:38;;;;;;;;;;;;;;;17.01;65.34;99548.91;5034297;28;20045;-81
2021/05/17 04:23:25;;;;;;;2.42;1.05;;;;;;;17.07;65.13;99552.81;5034881;28;19913;-79
2021/05/17 04:26:10;;;;;;;0.90;0.57;;;;;;;17.04;65.20;99556.34;5035886;28;20053;-80
2021/05/17 04:28:55;;;;;;;2.25;0.77;;;;;;;17.05;64.90;99546.94;5047128;28;20052;-81
2021/05/17 04:31:41;;;;;;;3.33;0.60;;;;;;;17.05;64.55;99560.69;5026195;28;20045;-80
2021/05/17 04:34:45;;;;;;;0.73;0.63;;;;;;;17.06;64.67;99573.25;5034381;28;20118;-79
2021/05/17 04:37:30;;;;;;;5.10;0.80;;;;;;;16.99;64.59;99589.69;5032802;28;20040;-81
2021/05/17 04:40:15;;;;;;;2.10;0.63;;;;;;;16.80;64.53;99592.72;5035884;28;20056;-79
2021/05/17 04:43:00;;;;;;;1.58;0.73;;;;;;;16.72;65.83;99595.81;5033715;28;20048;-80
2021/05/17 04:48:49;;;;;;;3.95;0.70;;;;;;;16.97;64.86;99597.50;5068528;28;20052;-82
2021/05/17 04:54:57;;;;;;;10.82;0.80;;;;;;;16.91;64.26;99585.34;5044337;28;19913;-85
2021/05/17 04:57:42;;;;;;;1.65;0.90;;;;;;;16.59;65.04;99589.88;5051330;28;20044;-83
2021/05/17 05:00:27;;;;;;;;;;;;;;;16.51;65.68;99594.47;5054758;28;20057;-86
2021/05/17 05:03:13;;;;;;;7.20;0.85;;;;;;;16.88;65.01;99594.34;5050852;28;19917;-83
2021/05/17 05:05:58;;;;;;;;;;;;;;;17.13;64.10;99599.16;5050171;28;20056;-86
2021/05/17 05:08:43;;;;;;;4.60;1.08;;;;;;;17.28;63.23;99589.78;5046613;28;19913;-81
2021/05/17 05:11:28;;;;;;;;;;;;;;;17.37;63.19;99590.22;5050202;28;20101;-85
2021/05/17 05:14:13;;;;;;;1.27;0.60;;;;;;;16.99;63.94;99591.66;5049136;28;19916;-85
2021/05/17 05:16:58;;;;;;;;;;;;;;;16.72;65.07;99595.81;5051295;28;20048;-86
2021/05/17 05:19:42;;;;;;;7.43;0.82;;;;;;;16.58;65.24;99578.09;5054326;28;19916;-81
2021/05/17 05:22:28;;;;;;;6.05;1.10;;;;;;;17.00;64.29;99585.78;5054050;28;20052;-80
2021/05/17 05:25:14;;;;;;;;;;;;;;;17.10;64.14;99595.22;5046150;28;20044;-85
2021/05/17 05:28:21;;;;;;;1.58;0.60;;;;;;;17.28;63.19;99595.28;5044654;28;20297;-86
2021/05/17 05:34:12;;;;;;;10.88;0.80;;;;;;;17.03;64.40;99598.72;5034318;28;20052;-86
2021/05/17 05:37:01;;;;;;;;;;;;;;;17.10;64.42;99600.72;5041732;28;20048;-84
2021/05/17 05:39:46;;;;;;;2.33;1.00;;;;;;;17.17;64.53;99598.00;5039597;28;19913;-83
2021/05/17 05:42:32;;;;;;;6.13;1.02;;;;;;;17.17;64.64;99602.72;5038522;28;20048;-85
2021/05/17 05:45:18;;;;;;;4.88;1.10;;;;;;;17.14;64.77;99600.72;5039966;28;20048;-86
2021/05/17 05:48:03;;;;;;;;;;;;;;;17.26;64.40;99609.44;5033171;28;20421;-86
2021/05/17 05:50:48;;;;;;;8.50;1.33;;;;;;;17.28;64.31;99606.28;5018572;28;19914;-85
2021/05/17 05:53:33;;;;;;;11.82;1.70;;;;;;;17.28;64.13;99612.56;5052647;22;20439;-78
2021/05/17 05:56:18;;;;;;;5.85;1.40;;;;;;;17.28;64.12;99615.31;5088819;28;20043;-78
2021/05/17 05:59:03;;;;;;;;;;;;;;;17.36;63.77;99627.13;5092891;28;20051;-78
2021/05/17 06:01:49;;;;;;;9.60;2.65;;;;;;;17.39;63.43;99615.34;5096713;28;19916;-77
2021/05/17 06:04:33;;;;;;;6.78;0.85;;;;;;;17.42;63.47;99622.84;5093686;28;20110;-78
2021/05/17 06:07:18;;;;;;;;;;;;;;;17.42;63.55;99629.09;5093273;28;20047;-78
2021/05/17 06:10:04;;;;;;;4.75;0.77;;;;;;;17.50;63.24;99624.41;5088450;28;20288;-78
2021/05/17 06:16:12;;;;;;;1.33;0.70;;;;;;;17.47;63.41;99647.19;5097499;28;20051;-78
2021/05/17 06:19:00;;;;;;;0.75;0.55;;;;;;;17.53;63.14;99659.38;5094841;28;20047;-78
2021/05/17 06:21:46;;;;;;;1.83;0.70;;;;;;;17.54;63.36;99660.94;5092977;28;20412;-77
2021/05/17 06:24:31;;;;;;;2.10;0.50;;;;;;;17.56;63.17;99669.59;5093280;28;20063;-77
2021/05/17 06:27:16;;;;;;;3.05;0.40;;;;;;;17.52;63.03;99674.31;5095367;28;20063;-78
2021/05/17 06:30:21;;;;;;;1.33;0.52;;;;;;;17.63;62.75;99677.09;5093091;28;20051;-77
2021/05/17 06:33:06;;;;;;;0.77;0.43;;;;;;;17.56;62.81;99675.09;5096549;28;20054;-78
2021/05/17 06:38:54;;;;;;;1.90;0.47;;;;;;;17.64;62.30;99668.47;5096789;28;20392;-78
2021/05/17 06:41:58;;;;;;;;;;;;;;;17.67;62.00;99672.44;5096419;28;20047;-77
2021/05/17 06:44:43;;;;;;;0.90;0.60;;;;;;;17.69;61.61;99679.09;5092627;28;19912;-78
2021/05/17 06:47:28;;;;;;;;;;;;;;;17.74;61.48;99675.19;5097533;28;20043;-78
2021/05/17 06:50:13;;;;;;;1.52;0.50;;;;;;;17.69;61.06;99676.34;5094746;28;20292;-77
2021/05/17 06:56:06;;;;;;;2.20;0.25;;;;;;;17.72;60.51;99681.09;5096316;28;20062;-77
2021/05/17 06:58:56;;;;;;;0.52;0.43;;;;;;;17.78;60.17;99681.47;5092741;28;20439;-77
2021/05/17 07:01:41;;;;;;;0.52;0.30;;;;;;;17.80;59.66;99688.16;5093609;28;20055;-78
2021/05/17 07:04:29;;;;;;;1.27;0.30;;;;;;;17.79;57.88;99686.59;5093252;28;20051;-77
2021/05/17 07:13:31;;;;;;;0.20;0.20;;;;;;;17.90;57.04;99698.41;5093466;28;20043;-78
2021/05/17 07:16:16;;;;;;;3.75;0.32;;;;;;;17.84;57.68;99686.22;5091559;28;20051;-77
2021/05/17 07:19:02;;;;;;;0.35;0.22;;;;;;;17.97;57.29;99700.41;5091349;28;20051;-77
2021/05/17 07:24:51;;;;;;;0.32;0.20;;;;;;;18.01;56.86;99701.19;5095613;28;20050;-77
2021/05/17 07:27:35;;;;;;;;;;;;;;;17.98;56.34;99703.94;5099279;28;20070;-77
2021/05/17 07:33:25;;;;;;;1.00;0.13;;;;;;;17.92;56.82;99701.56;5099691;28;20047;-77
2021/05/17 07:36:28;;;;;;;;;;;;;;;17.84;56.75;99704.69;5098271;28;20051;-77
2021/05/17 07:39:14;;;;;;;0.80;0.20;;;;;;;17.82;56.97;99707.84;5094804;28;20572;-78
2021/05/17 07:41:59;;;;;;;0.63;0.52;;;;;;;17.90;56.91;99714.91;5099107;28;20055;-78
2021/05/17 07:44:45;;;;;;;0.70;0.30;;;;;;;17.97;56.68;99705.13;5095464;28;20047;-77
2021/05/17 07:47:30;;;;;;;;;;;;;;;18.05;56.02;99714.94;5095522;28;20047;-77
2021/05/17 07:50:16;;;;;;;1.10;0.30;;;;;;;18.04;56.56;99718.88;5098793;28;19912;-77
2021/05/17 07:53:00;;;;;;;0.22;0.20;;;;;;;17.98;56.10;99717.69;5096876;28;20055;-77
2021/05/17 07:55:51;;;;;;;2.55;0.20;;;;;;;17.94;55.85;99712.16;5096991;28;20051;-77
2021/05/17 07:58:35;;;;;;;0.13;0.10;;;;;;;18.03;55.83;99722.81;5101443;28;20503;-78
2021/05/17 08:01:39;;;;;;;0.85;0.40;;;;;;;18.02;55.36;99737.75;5098598;28;20063;-79
2021/05/17 08:04:24;;;;;;;1.40;0.30;;;;;;;18.03;55.21;99731.06;5098449;28;20047;-79
2021/05/17 08:07:09;;;;;;;1.00;0.40;;;;;;;18.15;54.27;99737.00;5085539;28;20051;-79
2021/05/17 08:09:55;;;;;;;1.48;0.35;;;;;;;18.04;54.67;99730.66;5098320;28;20051;-78
2021/05/17 08:12:40;;;;;;;;;;;;;;;18.12;54.66;99732.28;5102880;28;20047;-79
2021/05/17 08:15:43;;;;;;;1.65;0.20;;;;;;;18.15;54.39;99737.00;5100834;28;19912;-78
2021/05/17 08:18:29;;;;;;;0.45;0.20;;;;;;;18.13;54.41;99722.06;5089049;28;20043;-79
2021/05/17 08:21:14;;;;;;;0.73;0.40;;;;;;;18.16;54.03;99729.53;5101172;28;20416;-79
2021/05/17 08:23:59;;;;;;;1.13;0.40;;;;;;;18.20;54.10;99738.56;5099290;28;20067;-79
2021/05/17 08:26:44;;;;;;;;;;;;;;;18.21;54.22;99748.41;5097679;28;20067;-78
2021/05/17 08:29:48;;;;;;;1.50;0.30;;;;;;;18.23;53.44;99743.31;5101436;28;19911;-79
2021/05/17 08:32:51;;;;;;;0.47;0.17;;;;;;;18.23;53.82;99740.56;5096565;28;20043;-79
2021/05/17 08:35:55;;;;;;;0.95;0.43;;;;;;;18.19;53.69;99745.25;5083744;28;20063;-78
2021/05/17 08:38:41;;;;;;;0.40;0.25;;;;;;;18.27;53.49;99755.09;5099473;28;20059;-78
2021/05/17 08:41:28;;;;;;;0.30;0.10;;;;;;;18.25;52.61;99755.47;5097230;28;20055;-79
2021/05/17 08:44:13;;;;;;;1.08;0.30;;;;;;;18.23;52.71;99763.38;5098596;28;20059;-79
2021/05/17 08:46:57;;;;;;;;;;;;;;;18.35;52.71;99771.25;5099842;28;20058;-79
2021/05/17 08:49:42;;;;;;;0.38;0.20;;;;;;;18.34;52.26;99774.38;5096708;28;19912;-79
2021/05/17 08:52:27;;;;;;;;;;;;;;;18.30;52.36;99776.34;5101278;28;20047;-79
2021/05/17 08:55:31;;;;;;;0.85;0.35;;;;;;;18.31;52.72;99772.41;5096522;28;19912;-78
2021/05/17 08:58:19;;;;;;;1.85;0.60;;;;;;;18.31;52.78;99783.41;5091034;28;20515;-78
2021/05/17 09:01:04;;;;;;;0.22;0.10;;;;;;;18.29;51.84;99781.03;5099428;28;20142;-79
2021/05/17 09:04:01;;;;;;;0.28;0.10;;;;;;;18.31;52.06;99786.16;5098225;28;20051;-79
2021/05/17 09:06:51;;;;;;;1.02;0.40;;;;;;;18.38;51.97;99783.44;5095599;28;20054;-79
2021/05/17 09:09:39;;;;;;;0.50;0.20;;;;;;;18.41;52.19;99785.41;5099327;28;20066;-78
2021/05/17 09:12:24;;;;;;;0.77;0.20;;;;;;;18.42;52.42;99791.69;5097252;28;20321;-78
2021/05/17 09:15:09;;;;;;;;;;;;;;;18.42;52.06;99800.75;5102913;28;20054;-79
2021/05/17 09:17:55;;;;;;;0.37;0.20;;;;;;;18.45;52.20;99799.97;5100885;28;19916;-79
2021/05/17 09:20:47;;;;;;;0.57;0.20;;;;;;;18.45;52.34;99799.16;5097407;28;20268;-79
2021/05/17 09:23:35;;;;;;;0.20;0.20;;;;;;;18.50;52.30;99809.78;5099346;28;20519;-79
2021/05/17 09:26:26;;;;;;;1.88;0.10;;;;;;;18.53;51.87;99807.06;5098785;28;20051;-78
2021/05/17 09:29:23;;;;;;;1.10;0.30;;;;;;;18.60;51.02;99812.59;5096798;28;20051;-78
2021/05/17 09:32:13;;;;;;;0.20;0.10;;;;;;;18.62;51.02;99817.72;5099929;28;20043;-79
2021/05/17 09:35:00;;;;;;;0.77;0.20;;;;;;;18.68;50.42;99821.69;5102036;28;20059;-79
2021/05/17 09:37:57;;;;;;;1.95;0.30;;;;;;;18.69;50.28;99824.03;5096052;28;20062;-79
2021/05/17 09:40:42;;;;;;;1.13;0.10;;;;;;;18.64;50.56;99829.91;5099054;28;20051;-79
2021/05/17 09:43:45;;;;;;;0.25;0.20;;;;;;;18.70;50.63;99839.38;5095553;28;20051;-79
2021/05/17 09:47:17;;;;;;;1.92;0.20;;;;;;;18.76;50.16;99837.81;5100004;28;20062;-79
2021/05/17 09:50:04;;;;;;;0.32;0.30;;;;;;;18.89;49.49;99829.97;5078809;28;20044;-78
2021/05/17 09:52:49;;;;;;;0.10;0.10;;;;;;;19.07;49.46;99828.00;5097521;28;20054;-78
2021/05/17 09:55:36;;;;;;;;;;;;;;;18.97;50.35;99833.50;5099419;28;20047;-78
2021/05/17 09:58:55;;;;;;;5.00;0.82;;;;;;;19.31;49.28;99834.66;5096116;28;19912;-78
2021/05/17 10:01:40;;;;;;;4.03;0.30;;;;;;;19.32;48.39;99822.47;5079942;28;20055;-79
2021/05/17 10:04:29;;;;;;;;;;;;;;;19.63;45.70;99823.63;5096405;28;20055;-78
2021/05/17 10:07:15;;;;;;;4.15;0.35;;;;;;;19.68;47.33;99825.19;5100269;28;19915;-79
2021/05/17 10:10:00;;;;;;;0.90;0.40;;;;;;;19.77;46.57;99825.53;5098039;28;20051;-79
2021/05/17 10:12:45;;;;;;;;;;;;;;;19.67;47.04;99835.44;5097934;28;20039;-79
2021/05/17 10:15:33;;;;;;;0.13;0.10;;;;;;;19.69;46.70;99829.53;5101490;28;19912;-79
2021/05/17 10:21:22;;;;;;;2.00;0.28;;;;;;;19.93;44.33;99831.41;5058965;28;20048;-79
2021/05/17 10:24:07;;;;;;;2.35;1.10;;;;;;;19.82;46.67;99836.97;5056183;28;20055;-78
2021/05/17 10:30:08;;;;;;;0.45;0.32;;;;;;;19.93;46.17;99843.25;5072727;28;19924;-79
2021/05/17 10:32:56;;;;;;;1.10;0.30;;;;;;;19.86;46.59;99859.03;5074243;28;20040;-78
2021/05/17 10:38:51;;;;;;;3.72;0.45;;;;;;;19.85;46.37;99858.25;5059542;28;20036;-79
2021/05/17 10:42:04;;;;;;;1.50;0.32;;;;;;;19.89;47.32;99858.25;5079057;28;20039;-78
2021/05/17 10:48:20;;;;;;;2.22;1.33;;;;;;;19.85;47.86;99846.44;5086341;28;20408;-79
2021/05/17 10:51:10;;;;;;;;;;;;;;;20.18;46.73;99854.19;5086481;28;20047;-79
2021/05/17 10:53:59;;;;;;;2.42;1.60;;;;;;;20.45;46.13;99844.22;5081109;28;19951;-79
2021/05/17 10:56:50;;;;;;;2.47;1.50;;;;;;;20.40;46.27;99841.91;5078032;28;20040;-78
2021/05/17 11:02:46;;;;;;;3.55;2.20;;;;;;;20.51;46.27;99841.03;5068027;28;20155;-79
2021/05/17 11:05:32;;;;;;;1.73;1.20;;;;;;;19.94;47.62;99833.00;5072206;28;20056;-78
2021/05/17 11:08:17;;;;;;;1.48;1.20;;;;;;;19.89;47.85;99842.47;5080724;28;20060;-78
2021/05/17 11:11:03;;;;;;;3.50;2.47;;;;;;;20.58;42.82;99829.94;5077866;28;20039;-78
2021/05/17 11:14:20;;;;;;;3.13;1.58;;;;;;;20.60;45.19;99835.84;5075058;28;20069;-78
2021/05/17 11:17:05;;;;;;;2.50;1.50;;;;;;;20.40;45.67;99833.59;5079839;28;20043;-78
2021/05/17 11:19:50;;;;;;;1.40;1.00;;;;;;;20.34;45.58;99839.94;5078153;28;20048;-78
2021/05/17 11:22:53;;;;;;;2.35;1.90;;;;;;;20.85;42.46;99845.56;5083078;28;20055;-80
2021/05/17 11:28:50;;;;;;;2.67;2.15;;;;;;;20.45;44.09;99843.44;5063817;28;20405;-79
2021/05/17 11:31:42;;;;;;;2.60;1.30;;;;;;;20.35;44.47;99841.53;5062153;28;20043;-79
2021/05/17 11:34:27;;;;;;;3.17;1.42;;;;;;;20.82;42.66;99843.63;5059505;28;20417;-79
2021/05/17 11:37:33;;;;;;;1.33;1.23;;;;;;;20.50;44.52;99851.31;5063268;28;20123;-79
2021/05/17 11:40:29;;;;;;;1.88;1.38;;;;;;;20.12;45.90;99849.47;5060314;28;20048;-79
2021/05/17 11:43:13;;;;;;;1.40;0.98;;;;;;;19.89;46.27;99844.44;5063253;28;20048;-79
2021/05/17 11:45:59;;;;;;;1.55;1.15;;;;;;;19.69;47.64;99838.59;5061317;28;20051;-78
2021/05/17 11:48:45;;;;;;;1.50;1.20;;;;;;;19.77;47.11;99839.34;5059676;28;20044;-79
2021/05/17 11:51:30;;;;;;;2.22;1.40;;;;;;;19.55;47.97;99836.66;5062242;28;20120;-78
2021/05/17 11:54:34;;;;;;;1.48;1.30;;;;;;;19.58;47.37;99843.34;5087575;23;20534;-86
2021/05/17 11:57:27;;;;;;;3.80;1.35;;;;;;;19.64;47.52;99844.50;5121342;28;20518;-86
2021/05/17 12:00:31;;;;;;;0.80;0.70;;;;;;;19.62;47.38;99842.13;5124317;28;20050;-86
2021/05/17 12:03:16;;;;;;;1.80;0.93;;;;;;;19.50;47.92;99842.56;5106278;28;20042;-88
2021/05/17 12:06:01;;;;;;;;;;;;;;;19.42;48.06;99849.22;5111173;28;20054;-85
2021/05/17 12:08:46;;;;;;;1.40;0.68;;;;;;;19.33;48.25;99851.63;5121031;28;19912;-88
2021/05/17 12:11:31;;;;;;;3.10;0.95;;;;;;;19.48;47.58;99855.97;5119579;28;20538;-83
2021/05/17 12:14:16;;;;;;;;;;;;;;;19.38;48.16;99862.25;5115827;28;20050;-83
2021/05/17 12:17:10;;;;;;;3.80;0.70;;;;;;;19.49;46.08;99856.75;5119392;28;19912;-84
2021/05/17 12:20:01;;;;;;;0.70;0.40;;;;;;;19.51;46.50;99870.91;5102133;28;20058;-83
2021/05/17 12:22:50;;;;;;;3.42;0.50;;;;;;;19.99;40.80;99862.94;5120632;28;20050;-85
2021/05/17 12:25:35;;;;;;;0.60;0.40;;;;;;;19.73;44.28;99855.13;5120287;28;20058;-84
2021/05/17 12:28:20;;;;;;;0.63;0.40;;;;;;;19.75;43.38;99861.84;5103087;28;20059;-85
2021/05/17 12:31:05;;;;;;;11.95;1.20;;;;;;;19.84;39.88;99842.88;5116505;28;20043;-84
2021/05/17 12:36:54;;;;;;;8.85;1.38;;;;;;;20.11;40.13;99847.91;5106652;28;20586;-85
2021/05/17 12:39:39;;;;;;;1.98;0.98;;;;;;;20.12;39.11;99844.75;5100279;28;20067;-86
2021/05/17 12:42:24;;;;;;;1.98;0.40;;;;;;;20.25;39.49;99858.91;5112711;28;20411;-86
2021/05/17 12:45:28;;;;;;;6.65;1.10;;;;;;;19.94;40.95;99880.69;5107750;28;20051;-84
2021/05/17 12:48:26;;;;;;;1.48;0.50;;;;;;;20.13;39.66;99892.47;5108608;28;20518;-84
2021/05/17 12:51:23;;;;;;;2.15;0.80;;;;;;;20.12;39.13;99883.38;5096199;28;20047;-82
2021/05/17 12:54:16;;;;;;;1.10;0.50;;;;;;;19.97;38.95;99884.63;5098869;28;20043;-83
2021/05/17 12:57:24;;;;;;;1.23;0.40;;;;;;;19.78;39.98;99894.13;5098112;28;20070;-84
2021/05/17 13:00:09;;;;;;;1.38;0.40;;;;;;;19.70;41.52;99889.03;5081321;28;20431;-84
2021/05/17 13:03:02;;;;;;;5.45;0.50;;;;;;;19.76;40.31;99876.41;5099953;28;20060;-83
2021/05/17 13:06:10;;;;;;;0.75;0.30;;;;;;;19.70;41.69;99900.06;5099637;28;20039;-84
2021/05/17 13:09:17;;;;;;;2.97;0.28;;;;;;;19.61;39.52;99886.66;5102796;28;20047;-83
2021/05/17 13:12:02;;;;;;;4.75;0.20;;;;;;;19.68;41.07;99889.41;5100631;28;20054;-84
2021/05/17 13:14:48;;;;;;;7.93;0.85;;;;;;;19.71;41.36;99882.34;5101554;28;20055;-84
2021/05/17 13:20:37;;;;;;;3.13;0.30;;;;;;;19.41;38.81;99904.78;5100675;28;20051;-85
2021/05/17 13:32:39;;;;;;;2.58;0.47;;;;;;;19.23;43.77;99926.84;5104395;28;20047;-85
2021/05/17 13:35:25;;;;;;;1.25;0.50;;;;;;;19.37;39.97;99937.06;5102532;28;20420;-83
2021/05/17 13:38:09;;;;;;;1.83;0.30;;;;;;;19.46;37.88;99932.78;5105965;28;20043;-82
2021/05/17 13:40:55;;;;;;;0.85;0.40;;;;;;;19.53;40.84;99943.81;5101136;28;20412;-84
2021/05/17 13:43:58;;;;;;;2.53;0.30;;;;;;;19.60;39.70;99963.13;5098611;28;20047;-82
2021/05/17 13:46:43;;;;;;;2.83;0.32;;;;;;;19.27;42.86;100010.31;5099884;28;20047;-85
2021/05/17 13:49:32;;;;;;;1.88;0.40;;;;;;;18.96;44.86;99975.19;5099044;28;20066;-84
2021/05/17 13:52:36;;;;;;;4.43;0.40;;;;;;;19.08;44.55;99974.84;5086222;28;20044;-84
2021/05/17 13:55:21;;;;;;;1.98;0.95;;;;;;;18.90;44.25;99979.50;5080102;28;20043;-83
2021/05/17 13:58:24;;;;;;;5.57;0.55;;;;;;;18.76;43.21;99960.97;5097399;28;20051;-83
2021/05/17 14:01:10;;;;;;;1.83;0.40;;;;;;;18.76;43.67;99969.25;5100830;28;20059;-85
2021/05/17 14:03:55;;;;;;;1.98;0.22;;;;;;;18.69;43.27;99970.00;5098935;28;20522;-85
2021/05/17 14:06:40;;;;;;;0.60;0.32;;;;;;;18.71;42.07;99962.16;5107769;28;20050;-84
2021/05/17 14:09:25;;;;;;;4.18;0.40;;;;;;;18.83;40.41;99958.25;5107023;28;20402;-86
2021/05/17 14:12:10;;;;;;;6.00;0.90;;;;;;;18.92;40.15;99950.41;5104183;28;20526;-86
2021/05/17 14:14:55;;;;;;;3.53;0.40;;;;;;;19.01;40.86;99939.00;5114391;28;20046;-85
2021/05/17 14:17:42;;;;;;;1.63;0.20;;;;;;;19.06;40.38;99935.84;5109705;28;20051;-85
2021/05/17 14:20:27;;;;;;;2.05;0.75;;;;;;;19.08;41.12;99942.56;5121164;28;20101;-86
2021/05/17 14:23:12;;;;;;;;;;;;;;;19.11;41.50;99963.03;5093226;28;20050;-85
2021/05/17 14:25:57;;;;;;;0.32;0.20;;;;;;;19.10;41.34;99951.22;5113102;28;19912;-84
2021/05/17 14:28:46;;;;;;;3.90;0.30;;;;;;;19.22;40.99;99953.63;5108968;28;20403;-86
2021/05/17 14:31:35;;;;;;;1.85;0.55;;;;;;;19.14;41.61;99952.03;5105005;28;20412;-85
2021/05/17 14:34:20;;;;;;;2.47;0.50;;;;;;;19.01;41.82;99953.56;5107430;28;20046;-86
2021/05/17 14:37:07;;;;;;;1.20;0.30;;;;;;;18.83;42.58;99932.66;5109654;28;20039;-85
2021/05/17 14:39:52;;;;;;;1.23;0.32;;;;;;;18.84;42.82;99914.97;5106846;28;20051;-86
2021/05/17 14:42:39;;;;;;;1.00;0.20;;;;;;;19.00;42.30;99909.88;5108623;28;20043;-86
2021/05/17 14:45:25;;;;;;;1.17;0.30;;;;;;;19.00;42.06;99907.09;5107481;28;20047;-87
2021/05/17 14:48:10;;;;;;;0.85;0.52;;;;;;;19.03;41.31;99920.91;5113203;28;20043;-88
2021/05/17 14:50:55;;;;;;;0.20;0.20;;;;;;;18.98;41.38;99937.81;5112067;28;20411;-86